Time;durP1;ratioP1;P1;durP2;ratioP2;P2;SDS_P1;SDS_P2;PMS_P1;PMS_P2;Temp;Humidity;BMP_temperature;BMP_pressure;BME280_temperature;BME280_humidity;BME280_pressure;Samples;Min_cycle;Max_cycle;Signal;HPM_P1;HPM_P2
2021/09/29 00:01:27;;;;;;;34.35;19.37;;;;;;;6.66;100.00;103434.91;2584944;55;20279;-69
2021/09/29 00:03:55;;;;;;;31.10;18.62;;;;;;;6.68;100.00;103438.41;2585281;55;20135;-69
2021/09/29 00:06:23;;;;;;;30.98;18.33;;;;;;;6.66;100.00;103437.56;2584611;55;20121;-69
2021/09/29 00:08:52;;;;;;;32.85;17.60;;;;;;;6.68;100.00;103436.66;2586054;55;20109;-69
2021/09/29 00:11:20;;;;;;;29.30;17.55;;;;;;;6.67;100.00;103434.91;2583846;55;20638;-69
2021/09/29 00:13:47;;;;;;;29.60;17.70;;;;;;;6.63;100.00;103432.31;2586334;55;20124;-69
2021/09/29 00:16:15;;;;;;;32.30;17.67;;;;;;;6.61;100.00;103432.31;2584150;55;20112;-69
2021/09/29 00:18:43;;;;;;;30.48;17.23;;;;;;;6.63;100.00;103432.31;2584754;55;20116;-69
2021/09/29 00:21:11;;;;;;;31.40;17.45;;;;;;;6.68;100.00;103439.31;2584594;55;20607;-69
2021/09/29 00:23:39;;;;;;;33.33;18.00;;;;;;;6.68;100.00;103436.66;2585353;55;20101;-69
2021/09/29 00:26:08;;;;;;;32.95;17.17;;;;;;;6.67;100.00;103440.22;2584772;55;20112;-69
2021/09/29 00:28:36;;;;;;;31.70;18.15;;;;;;;6.68;100.00;103438.41;2586335;55;20108;-69
2021/09/29 00:31:05;;;;;;;32.25;17.75;;;;;;;6.74;100.00;103443.63;2585910;55;20159;-69
2021/09/29 00:33:35;;;;;;;32.13;18.17;;;;;;;6.71;100.00;103441.00;2584998;55;20485;-69
2021/09/29 00:36:03;;;;;;;31.30;16.90;;;;;;;6.73;100.00;103439.25;2585721;55;20108;-69
2021/09/29 00:38:31;;;;;;;33.78;17.92;;;;;;;6.74;100.00;103440.09;2584297;55;20665;-69
2021/09/29 00:41:00;;;;;;;30.12;16.70;;;;;;;6.74;100.00;103435.69;2584916;55;20546;-69
2021/09/29 00:43:29;;;;;;;31.17;17.95;;;;;;;6.73;100.00;103439.25;2583916;55;20118;-69
2021/09/29 00:45:57;;;;;;;28.87;17.35;;;;;;;6.69;100.00;103442.81;2585220;55;20116;-69
2021/09/29 00:48:25;;;;;;;39.88;18.20;;;;;;;6.63;100.00;103438.47;2585480;55;20917;-69
2021/09/29 00:50:53;;;;;;;29.67;17.35;;;;;;;6.62;100.00;103441.19;2585255;55;20121;-69
2021/09/29 00:53:21;;;;;;;28.38;16.52;;;;;;;6.65;100.00;103441.13;2585813;55;20140;-69
2021/09/29 00:55:49;;;;;;;28.08;18.40;;;;;;;6.62;100.00;103446.50;2584225;55;20120;-69
2021/09/29 00:58:16;;;;;;;27.60;16.87;;;;;;;6.62;100.00;103435.88;2585909;55;20550;-69
2021/09/29 01:00:45;;;;;;;32.28;17.75;;;;;;;6.64;100.00;103439.38;2584104;55;20123;-69
2021/09/29 01:03:13;;;;;;;33.72;18.10;;;;;;;6.67;100.00;103439.31;2584565;55;20117;-69
2021/09/29 01:05:43;;;;;;;30.62;17.10;;;;;;;6.66;100.00;103437.56;2583983;55;20120;-69
2021/09/29 01:08:16;;;;;;;35.42;18.23;;;;;;;6.64;100.00;103439.38;2584940;55;20162;-69
2021/09/29 01:10:51;;;;;;;29.85;17.52;;;;;;;6.65;100.00;103441.97;2584039;55;20131;-69
2021/09/29 01:13:26;;;;;;;28.92;16.98;;;;;;;6.64;100.00;103436.72;2583911;55;20489;-69
2021/09/29 01:15:59;;;;;;;32.53;17.27;;;;;;;6.63;100.00;103442.94;2584583;55;20132;-69
2021/09/29 01:18:30;;;;;;;29.42;17.23;;;;;;;6.64;100.00;103444.69;2586119;55;20542;-69
2021/09/29 01:21:02;;;;;;;31.12;17.25;;;;;;;6.62;100.00;103435.88;2586030;55;20112;-69
2021/09/29 01:23:44;;;;;;;36.30;17.42;;;;;;;6.66;100.00;103437.56;2583247;55;20527;-68
2021/09/29 01:26:15;;;;;;;37.25;18.55;;;;;;;6.66;100.00;103434.91;2585034;55;20136;-69
2021/09/29 01:28:47;;;;;;;31.15;16.75;;;;;;;6.68;100.00;103441.06;2584723;55;20637;-69
2021/09/29 01:31:17;;;;;;;30.85;17.20;;;;;;;6.65;100.00;103435.81;2585510;55;20135;-69
2021/09/29 01:33:45;;;;;;;32.25;17.45;;;;;;;6.64;100.00;103429.63;2584915;55;20126;-69
2021/09/29 01:36:13;;;;;;;34.72;16.80;;;;;;;6.62;100.00;103436.72;2584637;55;20113;-69
2021/09/29 01:38:42;;;;;;;28.50;16.62;;;;;;;6.60;100.00;103427.94;2584053;55;20165;-69
2021/09/29 01:41:10;;;;;;;27.40;16.27;;;;;;;6.60;100.00;103427.03;2585296;55;20134;-69
2021/09/29 01:43:39;;;;;;;33.35;17.67;;;;;;;6.64;100.00;103429.63;2583063;55;20139;-69
2021/09/29 01:46:07;;;;;;;29.70;14.82;;;;;;;6.57;100.00;103433.28;2584285;55;20109;-69
2021/09/29 01:48:44;;;;;;;29.90;14.27;;;;;;;6.63;100.00;103427.00;2586400;55;20511;-69
2021/09/29 01:51:13;;;;;;;28.92;15.00;;;;;;;6.57;100.00;103424.44;2584928;55;20121;-69
2021/09/29 01:53:43;;;;;;;32.55;15.32;;;;;;;6.57;100.00;103432.41;2583625;55;20146;-69
2021/09/29 01:56:11;;;;;;;32.17;19.48;;;;;;;6.57;100.00;103432.41;2585227;55;20631;-69
2021/09/29 01:58:40;;;;;;;32.70;18.20;;;;;;;6.57;100.00;103440.34;2583075;55;20105;-69
2021/09/29 02:01:08;;;;;;;32.38;17.17;;;;;;;6.54;100.00;103431.56;2584330;55;20137;-69
2021/09/29 02:03:37;;;;;;;32.03;17.90;;;;;;;6.55;100.00;103429.75;2583873;55;20150;-69
2021/09/29 02:06:04;;;;;;;32.45;18.45;;;;;;;6.57;100.00;103429.75;2583608;55;20116;-69
2021/09/29 02:08:32;;;;;;;31.02;17.33;;;;;;;6.57;100.00;103429.75;2585976;55;20124;-69
2021/09/29 02:11:00;;;;;;;31.02;16.23;;;;;;;6.57;100.00;103427.09;2582944;55;20128;-68
2021/09/29 02:13:28;;;;;;;27.35;15.73;;;;;;;6.56;100.00;103425.34;2584120;55;20109;-69
2021/09/29 02:15:57;;;;;;;26.35;17.37;;;;;;;6.54;100.00;103434.19;2585762;55;20167;-68
2021/09/29 02:18:25;;;;;;;31.67;16.70;;;;;;;6.50;100.00;103432.47;2584026;55;20117;-68
2021/09/29 02:20:52;;;;;;;28.98;14.48;;;;;;;6.51;100.00;103421.00;2585346;55;20142;-69
2021/09/29 02:23:21;;;;;;;30.65;15.45;;;;;;;6.52;100.00;103425.41;2583863;55;20129;-69
2021/09/29 02:25:49;;;;;;;22.75;13.90;;;;;;;6.55;100.00;103427.09;2583027;55;20102;-68
2021/09/29 02:28:16;;;;;;;25.15;14.48;;;;;;;6.52;100.00;103436.00;2585087;55;20667;-69
2021/09/29 02:30:44;;;;;;;33.65;16.15;;;;;;;6.52;100.00;103422.75;2583945;55;20185;-68
2021/09/29 02:33:13;;;;;;;31.83;17.80;;;;;;;6.52;100.00;103430.69;2585531;55;20113;-69
2021/09/29 02:35:41;;;;;;;37.75;19.90;;;;;;;6.48;100.00;103431.62;2583294;55;20184;-69
2021/09/29 02:38:09;;;;;;;47.92;23.23;;;;;;;6.47;100.00;103427.22;2584600;55;20659;-69
2021/09/29 02:40:37;;;;;;;44.90;21.30;;;;;;;6.45;100.00;103425.47;2584818;55;20123;-69
2021/09/29 02:43:05;;;;;;;42.42;21.65;;;;;;;6.42;100.00;103421.12;2585441;55;20128;-69
2021/09/29 02:45:32;;;;;;;38.42;20.23;;;;;;;6.42;100.00;103425.53;2583368;55;20113;-68
2021/09/29 02:48:00;;;;;;;35.85;19.17;;;;;;;6.45;100.00;103421.06;2585125;55;20136;-69
2021/09/29 02:50:29;;;;;;;46.55;22.67;;;;;;;6.46;100.00;103433.44;2585081;55;20132;-68
2021/09/29 02:52:57;;;;;;;44.33;23.08;;;;;;;6.45;100.00;103426.37;2584764;55;20120;-68
2021/09/29 02:55:25;;;;;;;44.88;24.50;;;;;;;6.44;100.00;103427.28;2583971;55;20738;-68
2021/09/29 02:57:53;;;;;;;47.50;25.23;;;;;;;6.43;100.00;103427.28;2583539;55;20126;-68
2021/09/29 03:00:21;;;;;;;45.65;26.48;;;;;;;6.42;100.00;103422.87;2583244;55;20131;-69
2021/09/29 03:02:49;;;;;;;50.95;25.55;;;;;;;6.38;100.00;103416.75;2584325;55;20131;-68
2021/09/29 03:05:17;;;;;;;46.60;23.83;;;;;;;6.40;100.00;103418.47;2584633;55;20534;-69
2021/09/29 03:07:46;;;;;;;47.97;24.05;;;;;;;6.43;100.00;103420.22;2584880;55;20174;-68
2021/09/29 03:10:14;;;;;;;48.50;25.00;;;;;;;6.39;100.00;103418.50;2584284;55;20112;-68
2021/09/29 03:12:42;;;;;;;44.75;25.23;;;;;;;6.39;100.00;103418.50;2582443;55;20113;-69
2021/09/29 03:15:10;;;;;;;45.15;23.67;;;;;;;6.39;100.00;103414.09;2581316;55;20143;-68
2021/09/29 03:17:38;;;;;;;47.65;26.30;;;;;;;6.38;100.00;103420.28;2582559;55;20121;-69
2021/09/29 03:20:07;;;;;;;50.70;27.40;;;;;;;6.41;100.00;103411.38;2582153;55;20127;-68
2021/09/29 03:22:35;;;;;;;44.30;24.60;;;;;;;6.39;100.00;103419.37;2582020;55;20116;-68
2021/09/29 03:25:06;;;;;;;52.15;27.10;;;;;;;6.37;100.00;103415.88;2582453;55;20730;-68
2021/09/29 03:27:33;;;;;;;48.72;24.80;;;;;;;6.38;100.00;103416.75;2582423;55;20125;-68
2021/09/29 03:30:01;;;;;;;49.00;23.02;;;;;;;6.43;100.00;103412.28;2581914;55;20117;-68
2021/09/29 03:32:29;;;;;;;42.08;23.05;;;;;;;6.41;100.00;103411.38;2582573;55;20561;-68
2021/09/29 03:34:56;;;;;;;44.92;22.90;;;;;;;6.42;100.00;103413.16;2582390;55;20143;-69
2021/09/29 03:37:24;;;;;;;52.62;24.77;;;;;;;6.46;100.00;103416.63;2581342;55;20137;-68
2021/09/29 03:39:52;;;;;;;44.28;23.83;;;;;;;6.47;100.00;103413.09;2587608;55;20644;-68
2021/09/29 03:42:21;;;;;;;43.33;23.30;;;;;;;6.48;100.00;103409.53;2587447;55;20117;-69
2021/09/29 03:44:49;;;;;;;46.03;24.23;;;;;;;6.49;100.00;103413.94;2587564;55;20119;-69
2021/09/29 03:47:17;;;;;;;40.35;23.58;;;;;;;6.48;100.00;103410.41;2587414;55;20096;-68
2021/09/29 03:49:44;;;;;;;45.12;22.60;;;;;;;6.48;100.00;103421.00;2587448;55;20126;-68
2021/09/29 03:52:12;;;;;;;46.17;23.42;;;;;;;6.46;100.00;103417.50;2586959;55;20112;-68
2021/09/29 03:54:40;;;;;;;44.70;24.37;;;;;;;6.45;100.00;103415.75;2587370;55;20120;-68
2021/09/29 03:57:08;;;;;;;48.45;23.98;;;;;;;6.46;100.00;103427.22;2588123;55;20576;-68
2021/09/29 03:59:37;;;;;;;48.55;22.35;;;;;;;6.44;100.00;103421.97;2588190;55;20118;-68
2021/09/29 04:02:05;;;;;;;42.38;20.65;;;;;;;6.43;100.00;103414.91;2588148;55;20116;-68
2021/09/29 04:04:34;;;;;;;41.13;22.50;;;;;;;6.42;100.00;103418.47;2588485;55;20119;-69
2021/09/29 04:07:01;;;;;;;44.13;23.17;;;;;;;6.42;100.00;103414.94;2587975;55;20117;-68
2021/09/29 04:09:29;;;;;;;44.20;20.75;;;;;;;6.42;100.00;103426.44;2588036;55;20116;-69
2021/09/29 04:11:57;;;;;;;43.40;21.00;;;;;;;6.41;100.00;103419.34;2588332;55;20121;-68
2021/09/29 04:14:25;;;;;;;44.13;20.52;;;;;;;6.44;100.00;103418.44;2587789;55;20113;-68
2021/09/29 04:16:54;;;;;;;36.08;20.55;;;;;;;6.45;100.00;103423.72;2588335;55;20131;-67
2021/09/29 04:19:22;;;;;;;39.20;21.40;;;;;;;6.45;100.00;103406.91;2588284;55;20135;-67
2021/09/29 04:21:50;;;;;;;36.25;19.02;;;;;;;6.47;100.00;103416.63;2588207;55;20138;-67
2021/09/29 04:24:17;;;;;;;37.78;20.50;;;;;;;6.44;100.00;103424.62;2588145;55;20123;-66
2021/09/29 04:26:45;;;;;;;38.97;20.30;;;;;;;6.45;100.00;103422.84;2588607;55;20135;-67
2021/09/29 04:29:13;;;;;;;42.85;20.33;;;;;;;6.44;100.00;103426.37;2587831;55;20596;-67
2021/09/29 04:31:41;;;;;;;38.72;19.90;;;;;;;6.42;100.00;103425.53;2588168;55;20117;-67
2021/09/29 04:34:10;;;;;;;36.95;20.08;;;;;;;6.43;100.00;103433.47;2588266;55;20117;-67
2021/09/29 04:36:38;;;;;;;37.22;20.85;;;;;;;6.44;100.00;103435.22;2588085;55;20115;-67
2021/09/29 04:39:06;;;;;;;35.08;19.90;;;;;;;6.45;100.00;103434.34;2588010;55;20487;-67
2021/09/29 04:41:33;;;;;;;36.17;19.75;;;;;;;6.44;100.00;103443.19;2588141;55;20113;-67
2021/09/29 04:44:01;;;;;;;36.53;17.42;;;;;;;6.46;100.00;103440.50;2588032;55;20135;-67
2021/09/29 04:46:29;;;;;;;36.88;18.00;;;;;;;6.45;100.00;103426.37;2588261;55;20138;-67
2021/09/29 04:48:57;;;;;;;32.15;17.75;;;;;;;6.51;100.00;103439.56;2588243;55;20123;-67
2021/09/29 04:51:26;;;;;;;38.15;17.70;;;;;;;6.52;100.00;103433.34;2587742;55;20138;-67
2021/09/29 04:53:54;;;;;;;38.67;18.02;;;;;;;6.49;100.00;103428.06;2588088;55;20105;-67
2021/09/29 04:56:22;;;;;;;29.95;17.40;;;;;;;6.51;100.00;103434.25;2588414;55;20121;-67
2021/09/29 04:58:49;;;;;;;28.75;17.45;;;;;;;6.52;100.00;103425.41;2587804;55;20134;-67
2021/09/29 05:01:21;;;;;;;35.25;17.10;;;;;;;6.58;100.00;103431.50;2588220;55;20123;-67
2021/09/29 05:03:49;;;;;;;27.67;16.77;;;;;;;6.62;100.00;103433.22;2588059;55;20132;-67
2021/09/29 05:06:16;;;;;;;29.23;17.27;;;;;;;6.59;100.00;103436.78;2587631;55;20113;-67
2021/09/29 05:08:48;;;;;;;29.40;17.20;;;;;;;6.63;100.00;103440.28;2588251;55;20146;-67
2021/09/29 05:11:20;;;;;;;28.67;17.45;;;;;;;6.64;100.00;103439.38;2587543;55;20116;-67
2021/09/29 05:13:48;;;;;;;30.70;17.45;;;;;;;6.64;100.00;103440.22;2587438;55;20128;-67
2021/09/29 05:16:16;;;;;;;33.47;17.02;;;;;;;6.67;100.00;103444.63;2588319;55;20132;-67
2021/09/29 05:18:44;;;;;;;31.87;17.00;;;;;;;6.65;100.00;103435.81;2588078;55;20127;-67
2021/09/29 05:21:12;;;;;;;26.95;16.02;;;;;;;6.68;100.00;103441.06;2587534;55;20136;-67
2021/09/29 05:23:40;;;;;;;29.30;15.20;;;;;;;6.67;100.00;103444.63;2588202;55;20123;-67
2021/09/29 05:26:09;;;;;;;27.33;15.05;;;;;;;6.73;100.00;103449.84;2588385;55;20135;-67
2021/09/29 05:28:41;;;;;;;27.50;14.20;;;;;;;6.77;100.00;103440.06;2587736;55;20120;-67
2021/09/29 05:31:08;;;;;;;;;;;;;;;6.99;100.00;103445.88;2588603;55;20127;-67
2021/09/29 05:33:36;;;;;;;26.62;14.52;;;;;;;6.84;100.00;103446.16;2587297;55;20002;-67
2021/09/29 05:36:04;;;;;;;22.92;13.77;;;;;;;6.83;100.00;103450.56;2587586;55;20128;-67
2021/09/29 05:38:32;;;;;;;25.80;13.95;;;;;;;6.86;100.00;103447.00;2588081;55;20131;-67
2021/09/29 05:41:00;;;;;;;26.77;13.85;;;;;;;6.85;100.00;103442.59;2588133;55;20535;-67
2021/09/29 05:43:29;;;;;;;25.92;13.65;;;;;;;6.90;100.00;103448.69;2587564;55;20135;-67
2021/09/29 05:45:58;;;;;;;27.95;13.15;;;;;;;6.89;100.00;103455.78;2587924;55;20126;-67
2021/09/29 05:48:26;;;;;;;21.35;13.23;;;;;;;6.93;100.00;103446.00;2587310;55;20143;-67
2021/09/29 05:50:53;;;;;;;26.70;15.43;;;;;;;6.92;100.00;103458.38;2587662;55;20116;-67
2021/09/29 05:53:23;;;;;;;29.63;12.85;;;;;;;6.93;100.00;103456.63;2587821;55;20104;-67
2021/09/29 05:55:50;;;;;;;22.02;13.25;;;;;;;6.96;100.00;103451.25;2588142;55;20120;-67
2021/09/29 05:58:19;;;;;;;22.37;12.68;;;;;;;7.01;100.00;103460.00;2587747;55;20128;-67
2021/09/29 06:00:48;;;;;;;23.25;13.65;;;;;;;7.02;100.00;103456.47;2587991;55;20173;-67
2021/09/29 06:03:19;;;;;;;21.10;12.75;;;;;;;7.04;100.00;103459.97;2587823;55;20507;-67
2021/09/29 06:05:46;;;;;;;21.92;13.65;;;;;;;7.05;100.00;103445.81;2586790;55;20515;-67
2021/09/29 06:08:14;;;;;;;20.40;12.95;;;;;;;7.08;100.00;103453.69;2587915;55;20124;-67
2021/09/29 06:10:42;;;;;;;20.08;12.10;;;;;;;7.10;100.00;103453.69;2587888;55;20142;-66
2021/09/29 06:13:09;;;;;;;21.42;12.10;;;;;;;7.10;100.00;103451.91;2587624;55;20134;-66
2021/09/29 06:15:37;;;;;;;22.77;12.02;;;;;;;7.13;100.00;103460.75;2588107;55;20113;-66
2021/09/29 06:18:12;;;;;;;25.98;11.27;;;;;;;7.14;100.00;103455.38;2587518;55;20480;-67
2021/09/29 06:20:44;;;;;;;20.75;11.45;;;;;;;7.20;100.00;103457.06;2587211;55;20111;-66
2021/09/29 06:23:13;;;;;;;18.30;11.45;;;;;;;7.20;100.00;103462.38;2587904;55;20147;-68
2021/09/29 06:25:41;;;;;;;17.48;10.10;;;;;;;7.22;100.00;103456.13;2588086;55;20122;-66
2021/09/29 06:28:09;;;;;;;15.80;9.10;;;;;;;7.31;100.00;103462.19;2587738;55;20127;-67
2021/09/29 06:30:37;;;;;;;14.95;10.23;;;;;;;7.33;100.00;103463.94;2587818;55;20641;-67
2021/09/29 06:33:05;;;;;;;15.25;8.98;;;;;;;7.39;100.00;103465.59;2586717;55;20654;-67
2021/09/29 06:35:34;;;;;;;17.23;9.45;;;;;;;7.35;100.00;103463.87;2586220;55;20159;-67
2021/09/29 06:38:02;;;;;;;19.10;8.75;;;;;;;7.36;100.00;103460.31;2587765;55;20121;-67
2021/09/29 06:40:31;;;;;;;15.75;9.60;;;;;;;7.38;100.00;103461.19;2587984;55;20112;-67
2021/09/29 06:43:03;;;;;;;16.65;9.18;;;;;;;7.41;100.00;103454.91;2586173;55;20124;-67
2021/09/29 06:45:32;;;;;;;16.48;8.57;;;;;;;7.46;100.00;103461.03;2586019;55;20129;-67
2021/09/29 06:48:00;;;;;;;15.05;9.75;;;;;;;7.42;100.00;103459.34;2585825;55;20552;-67
2021/09/29 06:50:28;;;;;;;16.83;9.30;;;;;;;7.41;100.00;103453.16;2585597;55;20120;-67
2021/09/29 06:52:57;;;;;;;14.70;9.07;;;;;;;7.45;100.00;103453.97;2586285;55;20653;-67
2021/09/29 06:55:25;;;;;;;17.40;9.40;;;;;;;7.42;100.00;103459.34;2586305;55;20634;-67
2021/09/29 06:57:53;;;;;;;13.90;9.05;;;;;;;7.42;100.00;103464.66;2585780;55;20124;-67
2021/09/29 07:00:21;;;;;;;14.40;8.98;;;;;;;7.41;100.00;103458.47;2587704;55;20126;-67
2021/09/29 07:02:50;;;;;;;17.52;8.45;;;;;;;7.46;100.00;103455.72;2587911;55;20121;-67
2021/09/29 07:05:18;;;;;;;18.60;8.73;;;;;;;7.51;100.00;103456.50;2587491;55;20119;-67
2021/09/29 07:07:46;;;;;;;14.90;8.07;;;;;;;7.49;100.00;103453.00;2587396;55;20131;-67
2021/09/29 07:10:16;;;;;;;18.17;9.32;;;;;;;7.53;100.00;103452.06;2587062;55;20131;-67
2021/09/29 07:12:44;;;;;;;16.20;8.18;;;;;;;7.52;100.00;103451.19;2587448;55;20538;-67
2021/09/29 07:15:13;;;;;;;12.37;7.32;;;;;;;7.58;100.00;103460.81;2587780;55;20138;-67
2021/09/29 07:17:41;;;;;;;11.05;8.20;;;;;;;7.60;100.00;103464.31;2587952;55;20112;-67
2021/09/29 07:20:11;;;;;;;15.30;8.35;;;;;;;7.64;100.00;103460.72;2587301;55;20126;-67
2021/09/29 07:22:40;;;;;;;12.95;8.55;;;;;;;7.64;100.00;103455.38;2587533;55;20112;-67
2021/09/29 07:25:09;;;;;;;15.65;8.38;;;;;;;7.68;100.00;103461.53;2587618;55;20139;-67
2021/09/29 07:27:38;;;;;;;14.68;7.72;;;;;;;7.71;100.00;103465.88;2587331;55;20674;-68
2021/09/29 07:30:08;;;;;;;13.68;7.60;;;;;;;7.76;100.00;103464.03;2587572;55;20112;-67
2021/09/29 07:32:35;;;;;;;13.88;7.57;;;;;;;7.77;100.00;103466.66;2588161;55;20146;-67
2021/09/29 07:35:03;;;;;;;15.63;7.62;;;;;;;7.77;100.00;103461.34;2587230;55;20134;-67
2021/09/29 07:37:31;;;;;;;12.57;8.02;;;;;;;7.78;100.00;103452.47;2587827;55;20542;-67
2021/09/29 07:39:59;;;;;;;13.85;8.25;;;;;;;7.80;100.00;103460.41;2588584;55;20155;-68
2021/09/29 07:42:26;;;;;;;11.63;7.93;;;;;;;7.80;100.00;103473.69;2587989;55;20143;-67
2021/09/29 07:44:55;;;;;;;13.52;7.95;;;;;;;7.80;100.00;103471.03;2588547;55;20117;-67
2021/09/29 07:47:23;;;;;;;11.93;8.45;;;;;;;7.79;100.00;103469.28;2588391;55;20404;-67
2021/09/29 07:49:51;;;;;;;17.10;8.63;;;;;;;7.80;100.00;103466.59;2588367;55;20504;-67
2021/09/29 07:52:19;;;;;;;18.30;9.13;;;;;;;7.82;100.00;103463.94;2588385;55;20626;-67
2021/09/29 07:54:46;;;;;;;15.35;9.32;;;;;;;7.85;100.00;103466.50;2588203;55;20124;-67
2021/09/29 07:57:14;;;;;;;14.95;8.60;;;;;;;7.88;100.00;103465.59;2587884;55;20568;-67
2021/09/29 07:59:42;;;;;;;17.15;9.75;;;;;;;7.91;100.00;103462.84;2588410;55;20112;-67
2021/09/29 08:02:11;;;;;;;13.13;8.27;;;;;;;7.90;100.00;103461.97;2588151;55;20112;-67
2021/09/29 08:04:39;;;;;;;13.27;7.60;;;;;;;7.93;100.00;103472.56;2588317;55;20127;-67
2021/09/29 08:07:08;;;;;;;14.95;9.00;;;;;;;7.97;100.00;103459.19;2588061;55;20120;-67
2021/09/29 08:09:35;;;;;;;12.95;8.77;;;;;;;7.98;100.00;103463.59;2588479;55;20124;-67
2021/09/29 08:12:04;;;;;;;16.73;8.60;;;;;;;7.96;100.00;103460.09;2588119;55;20549;-67
2021/09/29 08:14:32;;;;;;;16.15;8.57;;;;;;;7.96;100.00;103460.97;2588446;55;20120;-67
2021/09/29 08:17:00;;;;;;;14.55;9.63;;;;;;;8.06;100.00;103470.50;2587351;55;20633;-67
2021/09/29 08:19:29;;;;;;;16.55;8.85;;;;;;;8.03;100.00;103467.06;2588333;55;20139;-67
2021/09/29 08:21:57;;;;;;;13.45;9.05;;;;;;;8.04;100.00;103466.16;2587989;55;20645;-67
2021/09/29 08:24:35;;;;;;;13.57;9.25;;;;;;;8.10;100.00;103475.78;2588081;55;20127;-67
2021/09/29 08:27:07;;;;;;;13.50;8.90;;;;;;;8.10;100.00;103473.97;2588086;55;20109;-67
2021/09/29 08:32:28;;;;;;;12.33;8.10;;;;;;;8.21;100.00;103471.09;2582547;55;20622;-67
2021/09/29 08:35:05;;;;;;;15.15;7.93;;;;;;;8.26;100.00;103479.84;2588313;55;20584;-67
2021/09/29 08:37:38;;;;;;;15.07;9.10;;;;;;;8.23;100.00;103473.75;2588224;55;20645;-67
2021/09/29 08:40:13;;;;;;;14.70;8.20;;;;;;;8.20;100.00;103475.53;2588199;55;20131;-66
2021/09/29 08:42:56;;;;;;;12.93;8.68;;;;;;;8.24;100.00;103476.34;2587787;55;20138;-67
2021/09/29 08:45:28;;;;;;;18.20;8.57;;;;;;;8.34;100.00;103472.59;2588555;55;20519;-67
2021/09/29 08:48:04;;;;;;;13.15;8.25;;;;;;;8.42;100.00;103479.53;2588043;55;20108;-67
2021/09/29 08:50:51;;;;;;;12.52;8.35;;;;;;;8.45;100.00;103468.81;2588176;55;20120;-67
2021/09/29 08:56:22;;;;;;;12.85;7.97;;;;;;;8.43;100.00;103479.50;2584199;55;20113;-67
2021/09/29 09:15:56;;;;;;;15.27;8.40;;;;;;;8.56;100.00;103469.47;2579122;55;20116;-67
2021/09/29 09:18:24;;;;;;;14.48;8.27;;;;;;;8.56;100.00;103469.47;2588137;55;20174;-67
2021/09/29 09:20:59;;;;;;;11.43;8.00;;;;;;;8.52;100.00;103469.56;2588176;55;20177;-67
2021/09/29 09:23:36;;;;;;;13.77;7.80;;;;;;;8.55;100.00;103482.84;2588239;55;20112;-67
2021/09/29 09:26:15;;;;;;;13.43;9.45;;;;;;;8.55;100.00;103469.53;2588103;55;20131;-67
2021/09/29 09:28:43;;;;;;;16.35;8.95;;;;;;;8.56;100.00;103472.12;2588317;55;20137;-67
2021/09/29 09:31:13;;;;;;;18.83;9.75;;;;;;;8.56;100.00;103474.81;2587229;55;20120;-67
2021/09/29 09:33:50;;;;;;;15.70;9.93;;;;;;;8.64;100.00;103469.31;2588308;55;20108;-67
2021/09/29 09:36:29;;;;;;;21.42;10.80;;;;;;;8.68;100.00;103465.66;2587769;55;20139;-67
2021/09/29 09:38:59;;;;;;;15.02;11.77;;;;;;;8.68;100.00;103471.00;2587792;55;20500;-69
2021/09/29 09:41:27;;;;;;;19.37;13.23;;;;;;;8.71;100.00;103465.59;2588094;55;20120;-69
2021/09/29 09:43:58;;;;;;;20.70;10.70;;;;;;;8.78;100.00;103469.00;2588142;55;20112;-69
2021/09/29 09:46:26;;;;;;;18.42;10.98;;;;;;;8.86;100.00;103463.50;2587716;55;20117;-67
2021/09/29 09:49:07;;;;;;;15.32;11.77;;;;;;;8.99;100.00;103464.06;2588224;55;20557;-67
2021/09/29 09:51:47;;;;;;;17.27;12.03;;;;;;;8.92;100.00;103458.03;2586998;55;20121;-67
2021/09/29 09:54:17;;;;;;;16.95;12.40;;;;;;;8.85;100.00;103467.06;2587632;55;20139;-67
2021/09/29 09:56:52;;;;;;;17.90;12.70;;;;;;;8.88;100.00;103467.88;2588142;55;20116;-67
2021/09/29 09:59:21;;;;;;;18.05;12.63;;;;;;;8.84;100.00;103460.00;2587748;55;20120;-67
2021/09/29 10:01:48;;;;;;;17.37;12.13;;;;;;;8.89;100.00;103463.41;2587812;55;20131;-67
2021/09/29 10:04:16;;;;;;;13.65;11.32;;;;;;;8.97;100.00;103465.88;2587861;55;20725;-67
2021/09/29 10:06:44;;;;;;;13.68;9.23;;;;;;;9.00;100.00;103468.47;2587916;55;20117;-67
2021/09/29 10:09:25;;;;;;;13.25;9.98;;;;;;;9.07;100.00;103463.87;2588093;55;20112;-68
2021/09/29 10:12:05;;;;;;;14.60;11.43;;;;;;;9.08;100.00;103466.50;2587903;55;20179;-67
2021/09/29 10:23:12;;;;;;;18.48;11.12;;;;;;;9.10;100.00;103461.13;2587936;55;20108;-67
2021/09/29 10:28:42;;;;;;;14.57;10.10;;;;;;;9.11;100.00;103463.75;2583057;55;20129;-68
2021/09/29 10:34:26;;;;;;;15.68;10.38;;;;;;;9.13;100.00;103455.75;2565387;55;20125;-68
2021/09/29 10:42:41;;;;;;;10.57;8.45;;;;;;;9.23;100.00;103461.69;2588010;55;20169;-70
2021/09/29 10:51:22;;;;;;;20.77;10.25;;;;;;;9.27;99.94;103453.59;2555232;56;20140;-70
2021/09/29 11:03:19;;;;;;;11.00;8.27;;;;;;;9.43;98.19;103462.03;2587636;55;20717;-70
2021/09/29 11:06:17;;;;;;;13.48;8.50;;;;;;;9.39;98.18;103457.72;2587550;55;20117;-68
2021/09/29 11:31:21;;;;;;;24.08;9.77;;;;;;;9.60;99.04;103434.06;2585589;55;20258;-68
2021/09/29 11:33:56;;;;;;;20.52;12.57;;;;;;;9.63;95.73;103441.13;2587847;55;20125;-68
2021/09/29 11:36:51;;;;;;;16.98;9.90;;;;;;;9.54;96.35;103432.47;2587415;55;20136;-68
2021/09/29 12:08:02;;;;;;;13.10;8.30;;;;;;;9.77;98.23;103420.25;2587173;55;20664;-70
2021/09/29 12:10:32;;;;;;;12.25;8.15;;;;;;;9.80;98.17;103424.66;2587524;55;20120;-68
2021/09/29 12:13:04;;;;;;;11.60;8.15;;;;;;;9.78;96.00;103423.81;2587247;55;20555;-68
2021/09/29 12:15:44;;;;;;;11.98;8.02;;;;;;;9.84;97.58;103418.28;2587497;55;20121;-68
2021/09/29 12:18:12;;;;;;;16.87;8.30;;;;;;;9.84;97.14;103432.50;2587729;55;20116;-68
2021/09/29 12:20:50;;;;;;;10.18;7.20;;;;;;;9.91;96.70;103416.31;2588082;55;20576;-68
2021/09/29 12:23:19;;;;;;;18.05;7.28;;;;;;;9.83;94.97;103417.44;2588379;55;20143;-68
2021/09/29 12:25:53;;;;;;;8.60;7.03;;;;;;;9.80;93.48;103419.31;2587382;55;20515;-68
2021/09/29 12:28:32;;;;;;;9.02;6.62;;;;;;;9.70;92.70;103408.03;2588040;55;20251;-68
2021/09/29 12:31:24;;;;;;;17.42;9.00;;;;;;;9.75;95.60;103398.12;2588366;55;20121;-68
2021/09/29 12:33:57;;;;;;;13.45;10.18;;;;;;;9.86;95.35;103404.00;2588261;55;20642;-68
2021/09/29 12:36:30;;;;;;;10.40;6.22;;;;;;;9.87;91.65;103405.75;2587482;55;20142;-69
2021/09/29 12:38:58;;;;;;;9.43;5.78;;;;;;;9.87;90.14;103400.41;2588390;55;20538;-67
2021/09/29 12:41:28;;;;;;;12.02;9.05;;;;;;;9.84;91.01;103397.84;2588196;55;20150;-68
2021/09/29 12:44:03;;;;;;;12.68;9.13;;;;;;;9.82;90.74;103397.03;2587973;55;20116;-68
2021/09/29 12:46:33;;;;;;;12.02;7.47;;;;;;;9.72;87.95;103387.50;2588273;55;20134;-68
2021/09/29 12:49:08;;;;;;;12.25;6.80;;;;;;;9.73;90.52;103391.97;2588299;55;20109;-68
2021/09/29 12:51:41;;;;;;;15.02;10.02;;;;;;;9.75;92.18;103395.44;2588021;55;20642;-67
2021/09/29 12:54:10;;;;;;;10.63;8.32;;;;;;;9.77;92.30;103392.72;2588454;55;20134;-68
2021/09/29 12:56:39;;;;;;;22.58;10.07;;;;;;;9.85;94.78;103382.72;2588249;55;20120;-67
2021/09/29 12:59:07;;;;;;;10.07;8.27;;;;;;;9.89;88.50;103387.91;2588031;55;20113;-68
2021/09/29 13:01:34;;;;;;;9.95;5.47;;;;;;;9.86;86.05;103389.78;2587920;55;20128;-68
2021/09/29 13:04:02;;;;;;;8.52;5.65;;;;;;;9.78;85.86;103381.16;2588341;55;20132;-67
2021/09/29 13:06:30;;;;;;;10.40;5.40;;;;;;;9.71;85.04;103377.78;2587914;55;20123;-68
2021/09/29 13:08:58;;;;;;;7.62;5.05;;;;;;;9.69;85.35;103371.63;2588202;55;20097;-67
2021/09/29 13:11:26;;;;;;;8.18;4.53;;;;;;;9.72;84.06;103374.19;2588209;55;20124;-67
2021/09/29 13:13:55;;;;;;;12.10;7.35;;;;;;;9.76;80.45;103383.84;2588003;55;20124;-68
2021/09/29 13:16:25;;;;;;;18.80;12.15;;;;;;;9.71;81.25;103372.44;2587754;55;20120;-68